Terminal Aerodrome Forecast
Issued by NWS

Home | Current Version | Previous Version | Text Only | Print | Product List | Glossary On
Versions: 1 2 3 4 5 6 7 8 9 10 11 12 13 14 15 16 17 18
000
FTUS43 KOAX 262320
TAFBFF
TAF
KBFF 262320Z 2700/2724 09008KT P6SM VCSH BKN030 OVC040
     FM270100 11010KT P6SM OVC050
     FM271400 13012G20KT 5SM BR BKN008 OVC025=

USA.gov is the U.S. government's official web portal to all federal, state and local government web resources and services.